Last 7 Days

Abernathy 3 (AB3)

Hourly Data | America/Los_Angeles
as of 12/12/19 3:22 AM PST
Date & Time Temp (°F) RH (%) Dew Pt (°F) Wind Spd (mph) Wind Dir (°) Wind Gust (mph) Latest Rain (In) Daily Rain (In) Daily Min Temp (°F) Daily Max Temp (°F)
12/12/19 - 0300 52.6 99 52.2 0.4 ESE | 113 0.4 0.02 0.02 52.4 53.0
12/12/19 - 0200 52.5 99 52.2 0.5 ESE | 109 3.1 0.00 0.00 52.4 53.0
12/12/19 - 0100 53.0 99 52.6 0.4 NNW | 334 3.1 0.00 0.00 52.7 53.0
12/12/19 - 0000 52.9 98 52.4 0.4 NW | 315 1.7 0.01 0.06 50.3 54.4
12/11/19 - 2300 52.8 98 52.2 0.4 NW | 306 1.7 0.00 0.05 50.3 54.4
12/11/19 - 2200 52.7 97 52.0 0.8 NW | 325 3.1 0.01 0.05 50.3 54.4
12/11/19 - 2100 52.8 96 51.8 0.5 NNW | 328 2.4 0.01 0.04 50.3 54.4
12/11/19 - 2000 52.8 96 51.6 1.5 NNW | 330 5.8 0.01 0.03 50.3 54.4
12/11/19 - 1900 52.9 95 51.4 0.9 E | 98 4.4 0.00 0.02 50.3 54.4
12/11/19 - 1800 53.0 95 51.7 2.2 ENE | 69 6.8 0.00 0.02 50.3 54.4
12/11/19 - 1700 53.0 95 51.7 1.6 ENE | 66 5.8 0.00 0.02 50.3 54.4
12/11/19 - 1600 53.2 93 51.2 3.7 E | 80 9.8 0.00 0.02 50.3 54.4
12/11/19 - 1500 53.9 91 51.4 4.3 ENE | 70 10.1 0.00 0.02 50.3 54.4
12/11/19 - 1400 53.8 93 52.0 3.4 ENE | 76 7.4 0.00 0.02 50.3 54.0
12/11/19 - 1300 53.7 92 51.5 3.1 E | 91 6.1 0.01 0.02 50.3 54.0
12/11/19 - 1200 53.5 92 51.4 3.3 ENE | 67 7.1 0.00 0.01 50.3 53.7
12/11/19 - 1100 52.7 94 51.2 2.9 ENE | 75 6.1 0.00 0.01 50.3 53.3
12/11/19 - 1000 51.7 97 50.8 2.9 E | 80 8.1 0.00 0.01 50.3 52.1
12/11/19 - 0900 51.2 98 50.7 2.7 E | 79 5.8 0.00 0.01 50.3 51.3
12/11/19 - 0800 50.9 98 50.4 3.1 ENE | 77 7.1 0.01 0.01 50.3 51.3
12/11/19 - 0700 51.0 98 50.5 2.9 E | 85 6.4 0.00 0.00 50.3 51.3
12/11/19 - 0600 51.2 98 50.6 1.5 NE | 35 4.4 0.00 0.00 50.3 51.3
12/11/19 - 0500 51.0 98 50.5 1.8 NNW | 341 4.1 0.00 0.00 50.3 51.2
12/11/19 - 0400 50.6 98 50.1 1.8 NW | 325 4.8 0.00 0.00 50.3 51.1
12/11/19 - 0300 50.7 98 50.2 1.0 NNW | 334 4.1 0.00 0.00 50.3 51.1
12/11/19 - 0200 51.0 98 50.4 0.5 N | 10 2.4 0.00 0.00 50.7 51.1
12/11/19 - 0100 51.1 98 50.4 0.6 E | 83 3.4 0.00 0.00 51.0 51.1
12/11/19 - 0000 51.1 97 50.3 1.8 NE | 54 5.4 0.01 0.15 43.6 54.4
12/10/19 - 2300 51.3 97 50.4 2.0 ENE | 59 5.4 0.01 0.14 43.6 54.4
12/10/19 - 2200 51.4 97 50.5 0.6 SSW | 194 2.7 0.00 0.13 43.6 54.4
12/10/19 - 2100 51.4 96 50.1 0.6 SSW | 192 3.1 0.06 0.13 43.6 54.4
12/10/19 - 2000 51.6 93 49.8 0.8 NNW | 346 3.1 0.05 0.07 43.6 54.4
12/10/19 - 1900 52.6 88 49.0 1.0 WNW | 287 3.8 0.02 0.02 43.6 54.4
12/10/19 - 1800 52.8 85 48.4 1.3 NNE | 18 6.4 0.00 0.00 43.6 54.4
12/10/19 - 1700 53.3 84 48.5 3.1 NE | 50 6.4 0.00 0.00 43.6 54.4
12/10/19 - 1600 54.1 81 48.5 2.4 ENE | 66 5.8 0.00 0.00 43.6 54.4
12/10/19 - 1500 54.0 82 48.5 2.7 ENE | 75 6.1 0.00 0.00 43.6 54.4
12/10/19 - 1400 54.0 81 48.3 2.7 E | 85 5.8 0.00 0.00 43.6 54.4
12/10/19 - 1300 53.7 80 47.6 2.2 SE | 132 6.4 0.00 0.00 43.6 53.9
12/10/19 - 1200 53.3 83 48.2 1.8 NNE | 28 4.8 0.00 0.00 43.6 53.7
12/10/19 - 1100 51.4 92 49.2 2.3 E | 84 6.4 0.00 0.00 43.6 52.2
12/10/19 - 1000 49.6 98 49.0 0.5 NNW | 336 2.7 0.00 0.00 43.6 50.5
12/10/19 - 0900 48.0 99 47.8 0.7 NE | 47 2.7 0.00 0.00 43.6 48.9
12/10/19 - 0800 46.1 99 45.9 1.2 S | 178 3.8 0.00 0.00 43.6 47.0
12/10/19 - 0700 44.7 99 44.4 0.5 N | 354 3.1 0.00 0.00 43.6 46.8
12/10/19 - 0600 44.9 98 44.5 0.6 N | 352 3.1 0.00 0.00 43.6 46.8
12/10/19 - 0500 45.5 98 45.1 1.3 NW | 312 4.4 0.00 0.00 43.6 46.8
12/10/19 - 0400 45.8 98 45.3 1.4 WNW | 292 4.8 0.00 0.00 43.6 46.8
12/10/19 - 0300 45.8 98 45.4 3.2 WNW | 300 6.1 0.00 0.00 43.6 46.8
12/10/19 - 0200 45.0 98 44.5 2.4 WNW | 292 5.1 0.00 0.00 43.6 45.4
12/10/19 - 0100 44.4 98 43.8 2.8 NW | 314 6.4 0.00 0.00 43.6 45.4
12/10/19 - 0000 43.0 97 42.3 1.3 NW | 314 4.4 0.00 0.01 42.6 57.3
12/9/19 - 2300 43.8 96 42.9 0.5 WSW | 246 2.1 0.00 0.01 42.8 57.3
12/9/19 - 2200 46.0 95 44.8 1.3 WNW | 282 4.1 0.00 0.01 43.2 57.3
12/9/19 - 2100 47.8 94 46.3 2.0 W | 281 5.1 0.00 0.01 43.2 57.3
12/9/19 - 2000 49.1 93 47.3 2.4 WNW | 292 5.8 0.00 0.01 43.2 57.3
12/9/19 - 1900 50.3 91 47.9 3.4 WNW | 292 10.8 0.00 0.01 43.2 57.3
12/9/19 - 1800 51.4 90 48.7 6.3 W | 280 11.8 0.00 0.01 43.2 57.3
12/9/19 - 1700 52.3 90 49.5 7.7 WSW | 252 13.5 0.00 0.01 43.2 57.3
12/9/19 - 1600 54.9 86 50.6 7.1 SW | 232 13.5 0.00 0.01 43.2 57.3
12/9/19 - 1500 56.7 83 51.5 7.8 SSW | 197 12.1 0.00 0.01 43.2 57.3
12/9/19 - 1400 56.7 83 51.5 8.0 SSW | 207 13.5 0.00 0.01 43.2 57.3
12/9/19 - 1300 56.4 84 51.7 8.2 SSW | 210 13.5 0.00 0.01 43.2 57.0
12/9/19 - 1200 56.5 79 50.2 5.2 S | 187 12.8 0.00 0.01 43.2 57.0
12/9/19 - 1100 55.6 79 49.2 3.0 S | 176 6.8 0.00 0.01 43.2 56.1
12/9/19 - 1000 52.6 84 47.9 1.2 SSW | 197 4.1 0.01 0.01 43.2 55.1
12/9/19 - 0900 47.9 95 46.6 0.6 W | 274 3.1 0.00 0.00 43.2 50.6
12/9/19 - 0800 43.8 97 43.0 1.3 W | 265 4.4 0.00 0.00 43.2 46.3
12/9/19 - 0700 43.9 98 43.3 1.8 W | 274 4.1 0.00 0.00 43.3 46.3
12/9/19 - 0600 43.6 98 42.9 1.0 WSW | 250 3.4 0.00 0.00 43.4 46.3
12/9/19 - 0500 44.4 97 43.6 1.8 W | 271 5.1 0.00 0.00 43.7 46.3
12/9/19 - 0400 45.4 97 44.7 2.4 WNW | 297 4.4 0.00 0.00 44.7 46.3
12/9/19 - 0300 45.5 98 44.8 2.5 WNW | 288 5.4 0.00 0.00 45.0 46.3
12/9/19 - 0200 45.5 98 44.9 2.2 WNW | 284 5.1 0.00 0.00 45.0 46.3
12/9/19 - 0100 46.0 98 45.4 1.6 WNW | 290 3.8 0.00 0.00 45.6 46.3
12/9/19 - 0000 45.7 97 45.0 1.5 WNW | 297 3.8 0.00 0.02 45.6 64.8
12/8/19 - 2300 46.8 96 45.8 0.7 WNW | 297 2.4 0.00 0.02 45.8 64.8
12/8/19 - 2200 48.6 96 47.5 1.6 NW | 304 4.1 0.00 0.02 47.9 64.8
12/8/19 - 2100 49.6 96 48.4 1.7 NW | 308 4.8 0.00 0.02 48.9 64.8
12/8/19 - 2000 50.8 94 49.2 2.3 NW | 317 4.1 0.00 0.02 50.1 64.8
12/8/19 - 1900 52.2 93 50.2 1.5 NW | 325 5.1 0.00 0.02 51.6 64.8
12/8/19 - 1800 54.7 87 51.0 0.6 NW | 312 2.7 0.00 0.02 51.7 64.8
12/8/19 - 1700 59.5 72 50.6 1.4 N | 0 7.8 0.00 0.02 51.7 64.8
12/8/19 - 1600 61.2 72 52.1 2.7 NW | 304 8.4 0.00 0.02 51.7 64.8
12/8/19 - 1500 62.2 69 52.0 3.6 NNW | 334 11.1 0.00 0.02 51.7 64.8
12/8/19 - 1400 63.4 63 50.8 2.5 WSW | 242 6.8 0.00 0.02 51.7 64.5
12/8/19 - 1300 61.3 71 51.8 2.5 SW | 225 6.1 0.00 0.02 51.7 62.7
12/8/19 - 1200 58.9 80 52.9 2.0 SSW | 200 6.1 0.00 0.02 51.7 59.8
12/8/19 - 1100 58.3 84 53.5 3.8 SSE | 166 6.8 0.00 0.02 51.7 59.2
12/8/19 - 1000 56.7 96 55.6 0.9 ENE | 69 6.4 0.00 0.02 51.7 58.4
12/8/19 - 0900 53.7 99 53.3 0.5 NNE | 24 2.4 0.00 0.02 51.7 55.9
12/8/19 - 0800 52.7 98 52.3 0.5 NE | 44 2.1 0.00 0.02 51.7 55.9
12/8/19 - 0700 52.4 98 51.9 2.2 SE | 144 5.4 0.00 0.02 51.7 55.9
12/8/19 - 0600 53.3 97 52.6 0.5 SSW | 201 3.4 0.01 0.02 53.1 55.9
12/8/19 - 0500 54.0 97 53.1 1.8 S | 174 4.1 0.00 0.01 53.4 55.9
12/8/19 - 0400 53.8 96 52.8 2.7 E | 99 5.8 0.00 0.01 53.4 55.9
12/8/19 - 0300 54.4 94 52.9 2.7 SSE | 162 6.1 0.00 0.01 54.0 55.9
12/8/19 - 0200 55.4 94 53.6 4.5 SSW | 205 8.8 0.01 0.01 55.0 55.9
12/8/19 - 0100 55.6 94 54.0 6.7 SSW | 208 10.8 0.00 0.00 55.5 55.8
12/8/19 - 0000 56.3 94 54.6 7.3 SSW | 207 14.5 0.01 0.21 53.2 64.9
12/7/19 - 2300 57.7 90 54.8 9.9 SSW | 197 17.2 0.03 0.20 53.2 64.9
12/7/19 - 2200 57.8 90 55.0 8.8 SSW | 193 18.5 0.00 0.17 53.2 64.9
12/7/19 - 2100 57.8 89 54.8 9.4 SSW | 192 15.5 0.00 0.17 53.2 64.9
12/7/19 - 2000 57.6 89 54.5 6.2 S | 179 14.5 0.00 0.17 53.2 64.9
12/7/19 - 1900 56.6 89 53.3 3.2 S | 188 7.4 0.00 0.17 53.2 64.9
12/7/19 - 1800 56.7 86 52.8 4.6 S | 186 10.1 0.00 0.17 53.2 64.9
12/7/19 - 1700 58.2 84 53.2 10.8 SSW | 212 26.2 0.00 0.17 53.2 64.9
12/7/19 - 1600 60.2 82 54.6 10.2 S | 189 21.2 0.00 0.17 53.2 64.9
12/7/19 - 1500 59.3 90 56.2 9.0 S | 180 17.5 0.08 0.17 53.2 64.9
12/7/19 - 1400 60.8 82 55.5 12.0 S | 174 25.2 0.00 0.09 53.2 64.9
12/7/19 - 1300 62.2 76 54.5 13.5 SSE | 167 24.9 0.00 0.09 53.2 64.9
12/7/19 - 1200 63.8 70 53.7 14.4 SSE | 159 23.9 0.01 0.09 53.2 64.9
12/7/19 - 1100 62.8 72 53.5 12.2 SSE | 149 19.8 0.00 0.08 53.2 64.2
12/7/19 - 1000 62.5 76 54.7 9.6 SE | 145 17.2 0.00 0.08 53.2 63.2
12/7/19 - 0900 59.1 87 55.3 6.2 SE | 137 13.5 0.00 0.08 53.2 61.3
12/7/19 - 0800 55.2 96 54.2 1.8 SE | 143 6.4 0.00 0.08 53.2 56.4
12/7/19 - 0700 55.7 97 55.0 3.5 SE | 145 7.4 0.00 0.08 53.2 56.0
12/7/19 - 0600 53.6 98 53.2 0.9 ESE | 121 5.8 0.00 0.08 53.2 55.1
12/7/19 - 0500 54.4 98 53.8 0.5 W | 268 2.1 0.01 0.08 54.0 54.7
12/7/19 - 0400 54.5 97 53.8 0.7 WNW | 288 4.1 0.03 0.07 54.5 54.7
12/7/19 - 0300 54.6 96 53.6 1.0 NE | 52 4.8 0.01 0.04 54.5 54.7
12/7/19 - 0200 54.6 95 53.3 1.3 E | 101 3.4 0.02 0.03 54.5 54.7
12/7/19 - 0100 54.6 95 53.2 0.6 SE | 124 3.4 0.01 0.01 54.6 54.7
12/7/19 - 0000 54.7 94 53.1 3.0 SE | 131 9.8 0.00 0.30 49.2 61.2
12/6/19 - 2300 55.0 94 53.3 2.1 S | 169 7.4 0.07 0.30 49.2 61.2
12/6/19 - 2200 55.2 95 53.8 3.1 NW | 322 9.1 0.12 0.23 49.2 61.2
12/6/19 - 2100 56.2 90 53.4 2.2 NNW | 333 7.8 0.07 0.11 49.2 61.2
12/6/19 - 2000 57.4 84 52.7 2.3 SSW | 209 4.8 0.01 0.04 49.2 61.2
12/6/19 - 1900 58.1 81 52.2 4.4 SSE | 164 9.5 0.01 0.03 49.2 61.2
12/6/19 - 1800 59.2 77 51.8 6.4 S | 174 13.5 0.02 0.02 49.2 61.2
12/6/19 - 1700 59.4 81 53.5 3.0 WSW | 248 7.8 0.00 0.00 49.2 61.2
12/6/19 - 1600 60.4 78 53.7 1.1 W | 272 3.8 0.00 0.00 49.2 61.2
12/6/19 - 1500 60.2 80 54.2 2.6 SSW | 208 6.8 0.00 0.00 49.2 61.2
12/6/19 - 1400 60.9 76 53.4 4.4 ESE | 123 9.1 0.00 0.00 49.2 61.2
12/6/19 - 1300 59.2 78 52.1 4.0 ENE | 68 9.5 0.00 0.00 49.2 60.3
12/6/19 - 1200 57.7 83 52.5 4.3 E | 94 9.8 0.00 0.00 49.2 58.7
12/6/19 - 1100 54.3 95 52.9 1.7 E | 99 4.8 0.00 0.00 49.2 56.9
12/6/19 - 1000 53.1 98 52.5 2.5 E | 95 6.4 0.00 0.00 49.2 54.6
12/6/19 - 0900 53.0 98 52.6 3.4 E | 94 7.4 0.00 0.00 49.2 54.6
12/6/19 - 0800 52.5 98 52.0 1.1 NW | 324 5.4 0.00 0.00 49.2 54.6
12/6/19 - 0700 52.2 98 51.7 0.5 NW | 321 2.4 0.00 0.00 49.2 54.6
12/6/19 - 0600 51.3 98 50.8 0.4 NE | 39 2.1 0.00 0.00 49.2 54.6
12/6/19 - 0500 50.1 98 49.5 0.5 NW | 311 2.7 0.00 0.00 49.2 54.6
12/6/19 - 0400 49.7 97 48.9 0.7 W | 278 2.7 0.00 0.00 49.2 54.6
12/6/19 - 0300 51.7 96 50.7 1.1 WSW | 256 6.4 0.00 0.00 51.0 54.6
12/6/19 - 0200 53.4 94 51.8 0.6 ENE | 60 2.4 0.00 0.00 52.2 54.6
12/6/19 - 0100 54.5 94 52.7 0.9 SSW | 196 3.4 0.00 0.00 54.2 54.6
12/6/19 - 0000 54.6 94 52.7 1.3 S | 183 3.8 0.00 0.00 52.6 57.8
12/5/19 - 2300 54.9 92 52.6 2.1 S | 172 3.8 0.00 0.00 52.6 57.8
12/5/19 - 2200 55.0 91 52.4 0.7 S | 174 3.1 0.00 0.00 52.6 57.8
12/5/19 - 2100 55.0 92 52.6 0.5 WSW | 241 2.4 0.00 0.00 52.6 57.8
12/5/19 - 2000 55.0 90 52.2 0.5 NW | 304 2.4 0.00 0.00 52.6 57.8
12/5/19 - 1900 55.5 86 51.5 0.4 N | 11 2.7 0.00 0.00 52.6 57.8
12/5/19 - 1800 55.9 84 51.2 1.1 E | 92 5.1 0.00 0.00 52.6 57.8
12/5/19 - 1700 56.8 82 51.3 3.0 NE | 52 7.8 0.00 0.00 52.6 57.8
12/5/19 - 1600 57.3 81 51.4 3.1 ENE | 57 7.1 0.00 0.00 52.6 57.8
12/5/19 - 1500 57.3 80 51.2 3.9 ENE | 63 8.8 0.00 0.00 52.6 57.8
12/5/19 - 1400 56.5 86 52.2 4.5 ENE | 73 9.1 0.00 0.00 52.6 57.8
12/5/19 - 1300 57.0 85 52.5 4.8 ENE | 73 9.5 0.00 0.00 52.6 57.4
12/5/19 - 1200 56.7 86 52.7 4.5 NE | 48 8.1 0.00 0.00 52.6 57.4
12/5/19 - 1100 56.1 89 52.8 4.9 NE | 51 9.8 0.00 0.00 52.6 56.4
12/5/19 - 1000 55.3 92 52.9 2.8 E | 80 6.4 0.00 0.00 52.6 56.2
12/5/19 - 0900 54.5 93 52.6 0.9 ESE | 112 3.8 0.00 0.00 52.6 54.9
12/5/19 - 0800 54.0 94 52.4 0.8 NE | 41 3.8 0.00 0.00 52.6 54.2
12/5/19 - 0700 53.9 95 52.4 0.4 NE | 37 1.4 0.00 0.00 52.6 54.0
12/5/19 - 0600 53.6 96 52.5 1.1 NNE | 32 3.8 0.00 0.00 52.6 53.9
12/5/19 - 0500 53.3 96 52.3 0.4 W | 276 0.4 0.00 0.00 52.6 53.4
12/5/19 - 0400 53.2 96 52.1 0.4 N | 8 2.4 0.00 0.00 52.6 53.4
Max 63.8 99 56.2 14.4 - 26.2 0.12 0.30 55.5 64.9
Avg 53.4 91 50.8 2.8 - 6.8 0.00 - - -
Min 43.0 63 42.3 0.4 - 0.4 0.00 0.00 42.6 45.4
Total - - - - - - 0.77 - - -
Tip: Bookmark this page for easy future reference